Time;durP1;ratioP1;P1;durP2;ratioP2;P2;SDS_P1;SDS_P2;PMS_P1;PMS_P2;Temp;Humidity;BMP_temperature;BMP_pressure;BME280_temperature;BME280_humidity;BME280_pressure;Samples;Min_cycle;Max_cycle;Signal;HPM_P1;HPM_P2
2024/02/09 00:01:49;;;;;;;0.13;0.13;;;12.70;53.50;;;;;;5073283;28;20045;-72
2024/02/09 00:04:15;;;;;;;0.57;0.30;;;12.80;53.50;;;;;;5074092;28;20036;-74
2024/02/09 00:06:42;;;;;;;0.95;0.57;;;12.80;53.70;;;;;;5073891;28;20493;-73
2024/02/09 00:09:12;;;;;;;0.28;0.22;;;12.70;53.30;;;;;;5072607;28;20123;-72
2024/02/09 00:11:39;;;;;;;1.65;0.73;;;12.70;53.60;;;;;;5055822;28;20097;-72
2024/02/09 00:14:05;;;;;;;1.48;0.65;;;12.80;53.80;;;;;;5072770;28;20040;-73
2024/02/09 00:16:31;;;;;;;0.93;0.35;;;12.80;53.50;;;;;;5073716;28;20051;-73
2024/02/09 00:18:58;;;;;;;0.77;0.32;;;12.70;54.00;;;;;;5072501;28;20028;-73
2024/02/09 00:21:24;;;;;;;1.02;0.75;;;12.80;53.70;;;;;;5073323;28;20094;-72
2024/02/09 00:23:50;;;;;;;0.45;0.35;;;12.80;53.80;;;;;;5074437;28;20393;-73
2024/02/09 00:26:16;;;;;;;1.15;0.40;;;12.80;53.90;;;;;;5073215;28;20370;-73
2024/02/09 00:28:42;;;;;;;0.63;0.40;;;12.80;53.90;;;;;;5074376;28;20496;-72
2024/02/09 00:31:08;;;;;;;0.10;0.10;;;12.80;53.80;;;;;;5072154;28;20063;-73
2024/02/09 00:33:34;;;;;;;0.63;0.38;;;12.80;54.00;;;;;;5074479;28;20033;-73
2024/02/09 00:36:01;;;;;;;0.38;0.38;;;12.80;53.70;;;;;;5074489;28;20040;-73
2024/02/09 00:38:27;;;;;;;0.20;0.20;;;12.80;53.80;;;;;;5056317;28;20039;-72
2024/02/09 00:40:55;;;;;;;0.20;0.20;;;12.80;53.70;;;;;;5072087;28;20044;-73
2024/02/09 00:43:22;;;;;;;13.85;0.63;;;12.80;53.40;;;;;;5072833;28;20033;-74
2024/02/09 00:45:51;;;;;;;0.93;0.65;;;12.80;53.30;;;;;;5056323;28;20044;-73
2024/02/09 00:48:18;;;;;;;0.47;0.38;;;12.80;53.50;;;;;;5055799;28;20032;-74
2024/02/09 00:50:44;;;;;;;0.85;0.40;;;12.80;53.00;;;;;;5072856;28;20408;-73
2024/02/09 00:53:10;;;;;;;0.50;0.40;;;12.80;53.00;;;;;;5072103;28;20033;-73
2024/02/09 00:55:36;;;;;;;0.22;0.22;;;12.80;53.00;;;;;;5073907;28;20434;-73
2024/02/09 00:58:03;;;;;;;1.45;0.65;;;12.80;52.30;;;;;;5055929;28;20497;-74
2024/02/09 01:00:30;;;;;;;0.47;0.20;;;12.90;52.70;;;;;;5071681;28;20047;-73
2024/02/09 01:02:57;;;;;;;1.27;0.73;;;12.80;52.30;;;;;;5072437;28;20115;-73
2024/02/09 01:05:24;;;;;;;1.35;1.23;;;12.90;53.00;;;;;;5072333;28;20041;-73
2024/02/09 01:07:51;;;;;;;0.60;0.60;;;12.80;52.50;;;;;;5055022;28;20397;-73
2024/02/09 01:10:18;;;;;;;0.60;0.40;;;12.80;52.40;;;;;;5070918;28;20111;-73
2024/02/09 02:46:48;;;;;;;0.40;0.40;;;13.10;52.90;;;;;;5071768;28;20036;-72
2024/02/09 03:05:43;;;;;;;0.45;0.32;;;13.20;55.10;;;;;;5069968;28;20505;-73
2024/02/09 03:08:09;;;;;;;1.67;1.42;;;13.20;55.80;;;;;;5069677;28;20045;-73
2024/02/09 03:10:38;;;;;;;;;;;13.20;55.60;;;;;;5052949;28;20051;-73
2024/02/09 03:13:07;;;;;;;0.30;0.28;;;13.20;55.40;;;;;;5071494;28;20090;-73
2024/02/09 03:15:52;;;;;;;2.72;0.80;;;13.20;54.70;;;;;;5069889;28;20036;-73
2024/02/09 03:18:21;;;;;;;1.45;0.77;;;13.30;55.20;;;;;;5069474;28;20047;-73
2024/02/09 03:20:47;;;;;;;0.40;0.40;;;13.30;55.10;;;;;;5070066;28;20029;-73
2024/02/09 03:23:17;;;;;;;1.10;0.50;;;13.30;54.90;;;;;;5071163;28;20041;-72
2024/02/09 03:25:44;;;;;;;0.25;0.20;;;13.40;54.80;;;;;;5069819;28;20494;-73
2024/02/09 03:28:11;;;;;;;1.35;0.90;;;13.30;54.80;;;;;;5070207;28;20115;-72
2024/02/09 03:30:39;;;;;;;0.57;0.40;;;13.30;54.20;;;;;;5069150;28;20040;-74
2024/02/09 03:33:05;;;;;;;0.98;0.55;;;13.40;55.00;;;;;;5071322;28;20020;-73
2024/02/09 03:35:31;;;;;;;;;;;13.40;54.70;;;;;;5071822;28;20375;-73
2024/02/09 03:38:04;;;;;;;0.90;0.85;;;13.40;54.60;;;;;;5070848;28;19973;-73
2024/02/09 03:40:32;;;;;;;0.38;0.30;;;13.30;54.60;;;;;;5070119;28;20029;-74
2024/02/09 03:42:58;;;;;;;0.30;0.30;;;13.40;54.60;;;;;;5069521;28;20040;-73
2024/02/09 03:45:24;;;;;;;1.40;0.85;;;13.40;54.70;;;;;;5052724;28;20120;-74
2024/02/09 03:47:52;;;;;;;0.30;0.30;;;13.40;54.70;;;;;;5070576;28;20047;-72
2024/02/09 03:50:18;;;;;;;0.20;0.13;;;13.40;54.70;;;;;;5051838;28;20035;-73
2024/02/09 03:52:44;;;;;;;;;;;13.40;54.60;;;;;;5069877;28;20024;-73
2024/02/09 03:55:16;;;;;;;0.10;0.10;;;13.40;54.90;;;;;;5053505;28;19924;-72
2024/02/09 03:57:45;;;;;;;0.57;0.45;;;13.30;55.10;;;;;;5057139;28;20446;-72
2024/02/09 04:00:15;;;;;;;0.45;0.35;;;13.30;55.10;;;;;;5072227;28;20040;-74
2024/02/09 04:02:43;;;;;;;9.85;0.40;;;13.40;55.20;;;;;;5072852;28;20025;-73
2024/02/09 04:05:09;;;;;;;0.68;0.40;;;13.40;55.30;;;;;;5072805;28;20040;-72
2024/02/09 04:07:35;;;;;;;1.17;0.88;;;13.40;55.30;;;;;;5072965;28;20029;-74
2024/02/09 04:10:02;;;;;;;0.85;0.70;;;13.40;55.50;;;;;;5073042;28;20056;-73
2024/02/09 04:12:30;;;;;;;1.20;1.10;;;13.40;55.30;;;;;;5072658;28;20044;-73
2024/02/09 04:14:56;;;;;;;1.38;0.90;;;13.40;55.30;;;;;;5056324;28;20040;-73
2024/02/09 04:17:27;;;;;;;0.22;0.22;;;13.40;55.50;;;;;;5072579;28;20398;-73
2024/02/09 04:19:54;;;;;;;0.20;0.20;;;13.30;55.60;;;;;;5072727;28;20037;-73
2024/02/09 04:22:19;;;;;;;;;;;13.30;55.70;;;;;;5072313;28;20362;-73
2024/02/09 04:24:47;;;;;;;4.57;0.77;;;13.30;55.70;;;;;;5055538;28;19916;-73
2024/02/09 04:27:16;;;;;;;1.02;0.38;;;13.30;56.00;;;;;;5072129;28;20127;-74
2024/02/09 04:29:42;;;;;;;1.02;0.55;;;13.20;55.30;;;;;;5073633;28;20038;-73
2024/02/09 04:32:08;;;;;;;0.65;0.60;;;13.30;55.90;;;;;;5073013;28;20041;-72
2024/02/09 04:34:34;;;;;;;1.38;0.88;;;13.30;55.90;;;;;;5072376;28;20035;-74
2024/02/09 04:37:00;;;;;;;1.70;0.57;;;13.30;55.70;;;;;;5072192;28;20064;-72
2024/02/09 04:39:26;;;;;;;;;;;13.30;55.70;;;;;;5072770;28;20028;-73
2024/02/09 04:41:52;;;;;;;0.95;0.47;;;13.30;55.70;;;;;;5071396;28;19920;-72
2024/02/09 04:44:21;;;;;;;0.52;0.25;;;13.30;55.70;;;;;;5072286;28;20052;-73
2024/02/09 04:46:48;;;;;;;0.77;0.77;;;13.30;54.90;;;;;;5072174;28;20420;-72
2024/02/09 04:49:15;;;;;;;1.83;0.60;;;13.30;55.40;;;;;;5071889;28;20044;-73
2024/02/09 04:51:54;;;;;;;1.02;0.82;;;13.30;55.20;;;;;;5071388;28;20036;-73
2024/02/09 04:54:20;;;;;;;0.65;0.40;;;13.40;55.00;;;;;;5073253;28;20033;-73
2024/02/09 04:56:46;;;;;;;0.15;0.15;;;13.40;54.90;;;;;;5073577;28;20388;-73
2024/02/09 04:59:12;;;;;;;0.57;0.57;;;13.40;56.00;;;;;;5055089;28;20036;-74
2024/02/09 05:01:40;;;;;;;0.10;0.10;;;13.40;55.30;;;;;;5071271;28;20174;-73
2024/02/09 05:04:12;;;;;;;0.57;0.30;;;13.40;54.80;;;;;;5073096;28;20032;-73
2024/02/09 05:06:39;;;;;;;1.35;0.47;;;13.50;54.70;;;;;;5054877;28;20020;-73
2024/02/09 05:09:06;;;;;;;5.60;1.80;;;13.50;54.70;;;;;;5071691;28;20036;-73
2024/02/09 05:11:36;;;;;;;0.10;0.10;;;13.50;55.10;;;;;;5070999;28;20116;-73
2024/02/09 05:14:22;;;;;;;0.60;0.47;;;13.50;55.10;;;;;;5072784;28;20021;-73
2024/02/09 05:16:50;;;;;;;3.17;1.30;;;13.50;55.50;;;;;;5071730;28;20086;-74
2024/02/09 05:19:16;;;;;;;0.60;0.40;;;13.40;55.50;;;;;;5072743;28;20024;-74
2024/02/09 05:21:42;;;;;;;0.55;0.52;;;13.40;55.10;;;;;;5072330;28;20145;-74
2024/02/09 05:24:08;;;;;;;1.58;1.27;;;13.50;55.30;;;;;;5054462;28;20044;-74
2024/02/09 05:26:34;;;;;;;;;;;13.50;54.60;;;;;;5072107;28;20447;-73
2024/02/09 05:29:02;;;;;;;0.82;0.52;;;13.50;55.10;;;;;;5072411;28;20007;-74
2024/02/09 05:31:29;;;;;;;1.08;1.02;;;13.50;55.10;;;;;;5070337;28;20040;-73
2024/02/09 05:33:55;;;;;;;0.20;0.20;;;13.50;55.30;;;;;;5071281;28;20432;-73
2024/02/09 05:36:22;;;;;;;;;;;13.50;55.10;;;;;;5073144;28;20040;-74
2024/02/09 05:38:50;;;;;;;1.65;1.08;;;13.50;55.40;;;;;;5071016;28;19961;-73
2024/02/09 05:41:17;;;;;;;0.55;0.30;;;13.50;54.80;;;;;;5070271;28;20516;-74
2024/02/09 05:44:02;;;;;;;1.02;0.70;;;13.50;55.10;;;;;;5071152;28;20043;-74
2024/02/09 05:46:28;;;;;;;0.98;0.60;;;13.50;55.00;;;;;;5072284;28;20032;-73
2024/02/09 05:48:55;;;;;;;3.00;0.65;;;13.50;55.30;;;;;;5054113;28;20036;-73
2024/02/09 05:51:22;;;;;;;0.75;0.68;;;13.50;55.00;;;;;;5071367;28;20095;-74
2024/02/09 05:53:49;;;;;;;0.75;0.45;;;13.50;54.80;;;;;;5072011;28;20029;-74
2024/02/09 05:56:34;;;;;;;0.77;0.35;;;13.60;55.00;;;;;;5070575;28;20405;-73
2024/02/09 05:59:04;;;;;;;1.27;0.70;;;13.60;55.00;;;;;;5071701;28;20032;-73
2024/02/09 06:01:31;;;;;;;0.52;0.45;;;13.60;54.80;;;;;;5053916;28;20036;-74
2024/02/09 06:03:58;;;;;;;0.70;0.70;;;13.60;54.70;;;;;;5070774;28;20074;-74
2024/02/09 06:06:24;;;;;;;;;;;13.60;54.80;;;;;;5070992;28;20033;-74
2024/02/09 06:08:50;;;;;;;0.47;0.30;;;13.60;54.20;;;;;;5070501;28;19916;-74
2024/02/09 06:11:17;;;;;;;0.25;0.25;;;13.60;54.70;;;;;;5077540;28;20106;-74
2024/02/09 06:13:45;;;;;;;0.17;0.10;;;13.60;54.50;;;;;;5071771;28;20089;-74
2024/02/09 06:16:13;;;;;;;2.17;0.43;;;13.60;54.70;;;;;;5070247;28;20044;-73
2024/02/09 06:18:39;;;;;;;0.52;0.43;;;13.60;54.50;;;;;;5069871;28;20033;-74
2024/02/09 06:21:06;;;;;;;0.73;0.52;;;13.60;53.90;;;;;;5069584;28;20044;-73
2024/02/09 06:23:34;;;;;;;24.95;6.07;;;13.60;54.00;;;;;;5071630;28;20056;-74
2024/02/09 06:26:01;;;;;;;1.58;1.40;;;13.60;54.40;;;;;;5070403;28;20528;-73
2024/02/09 06:28:27;;;;;;;1.38;0.60;;;13.70;54.50;;;;;;5084549;28;20048;-73
2024/02/09 06:30:53;;;;;;;0.38;0.30;;;13.60;54.00;;;;;;5089705;28;20043;-74
2024/02/09 06:33:19;;;;;;;0.38;0.20;;;13.60;54.10;;;;;;5090293;28;20039;-74
2024/02/09 06:35:46;;;;;;;1.08;0.45;;;13.60;54.10;;;;;;5091694;28;20043;-74
2024/02/09 06:38:13;;;;;;;1.65;0.55;;;13.60;54.00;;;;;;5090281;28;20040;-74
2024/02/09 06:40:40;;;;;;;0.30;0.30;;;13.60;53.80;;;;;;5089528;28;20032;-74
2024/02/09 06:43:06;;;;;;;;;;;13.60;53.10;;;;;;5090745;28;20035;-74
2024/02/09 06:45:35;;;;;;;0.17;0.17;;;13.60;52.80;;;;;;5090191;28;19963;-73
2024/02/09 06:48:05;;;;;;;0.10;0.10;;;13.60;52.30;;;;;;5090970;28;20028;-75
2024/02/09 06:50:35;;;;;;;1.17;0.50;;;13.70;52.70;;;;;;5089258;28;20485;-75
2024/02/09 06:53:05;;;;;;;0.38;0.38;;;13.70;52.50;;;;;;5090188;28;20028;-73
2024/02/09 06:55:32;;;;;;;0.17;0.17;;;13.70;51.60;;;;;;5090134;28;20081;-73
2024/02/09 06:57:59;;;;;;;1.67;0.77;;;13.70;51.90;;;;;;5090164;28;20149;-72
2024/02/09 07:00:25;;;;;;;1.40;0.45;;;13.80;51.30;;;;;;5090675;28;20066;-74
2024/02/09 07:02:53;;;;;;;0.98;0.65;;;13.80;51.50;;;;;;5079754;28;20489;-73
2024/02/09 07:05:22;;;;;;;1.45;0.98;;;13.80;51.20;;;;;;5052858;28;20052;-74
2024/02/09 07:08:08;;;;;;;0.80;0.47;;;13.80;51.30;;;;;;5053294;28;20070;-74
2024/02/09 07:10:34;;;;;;;0.25;0.20;;;13.90;51.00;;;;;;5070295;28;20493;-74
2024/02/09 07:13:00;;;;;;;0.70;0.50;;;13.90;51.70;;;;;;5056506;28;20101;-73
2024/02/09 07:15:29;;;;;;;0.75;0.32;;;13.90;51.40;;;;;;5089800;28;20048;-74
2024/02/09 07:17:57;;;;;;;0.43;0.25;;;13.90;51.50;;;;;;5090870;28;20024;-73
2024/02/09 07:20:23;;;;;;;3.38;1.27;;;13.90;50.90;;;;;;5085135;28;20044;-74
2024/02/09 07:22:49;;;;;;;1.60;0.77;;;13.90;51.30;;;;;;5070817;28;20028;-74
2024/02/09 07:25:16;;;;;;;0.80;0.60;;;14.00;51.20;;;;;;5052558;28;20127;-73
2024/02/09 07:27:42;;;;;;;0.52;0.40;;;14.00;51.10;;;;;;5053134;28;20121;-74
2024/02/09 09:04:13;;;;;;;0.57;0.45;;;14.90;49.20;;;;;;5150131;27;20607;-72
2024/02/09 09:06:43;;;;;;;0.85;0.40;;;14.90;48.00;;;;;;5149938;27;20039;-73
2024/02/09 09:09:09;;;;;;;0.80;0.55;;;14.90;47.90;;;;;;5149083;27;20066;-73
2024/02/09 09:11:36;;;;;;;0.75;0.75;;;14.90;48.00;;;;;;5121666;27;20051;-73
2024/02/09 09:14:03;;;;;;;1.20;0.55;;;14.90;47.80;;;;;;5107009;28;20102;-73
2024/02/09 09:16:29;;;;;;;1.13;1.02;;;14.90;48.30;;;;;;5107458;28;20141;-73
2024/02/09 09:18:55;;;;;;;1.52;1.38;;;14.90;47.60;;;;;;5104280;28;20028;-72
2024/02/09 09:21:21;;;;;;;0.43;0.43;;;14.90;47.30;;;;;;5101643;28;20044;-73
2024/02/09 09:23:47;;;;;;;;;;;15.00;47.00;;;;;;5107479;28;20036;-73
2024/02/09 09:26:13;;;;;;;3.80;0.30;;;15.20;47.00;;;;;;5108375;28;19918;-73
2024/02/09 09:28:39;;;;;;;0.10;0.10;;;15.20;45.80;;;;;;5107912;28;20040;-72
2024/02/09 09:31:05;;;;;;;0.63;0.32;;;15.30;46.40;;;;;;5106660;28;20067;-73
2024/02/09 09:36:16;;;;;;;0.52;0.50;;;15.20;46.00;;;;;;5105130;28;20046;-73
2024/02/09 09:38:45;;;;;;;;;;;15.20;45.70;;;;;;5090624;28;20546;-72
2024/02/09 09:41:11;;;;;;;0.55;0.30;;;15.20;45.70;;;;;;5088101;28;19959;-72
2024/02/09 09:43:38;;;;;;;0.20;0.20;;;15.20;46.10;;;;;;5107823;28;20046;-73
2024/02/09 09:46:08;;;;;;;0.57;0.40;;;15.10;45.80;;;;;;5106802;28;20023;-73
2024/02/09 09:48:37;;;;;;;1.13;1.02;;;15.10;46.00;;;;;;5108243;28;20036;-73
2024/02/09 09:54:09;;;;;;;1.08;0.57;;;15.10;45.10;;;;;;5100977;28;20412;-71
2024/02/09 09:56:39;;;;;;;1.50;1.40;;;15.10;45.50;;;;;;5085788;28;20062;-72
2024/02/09 09:59:07;;;;;;;1.40;1.30;;;15.10;45.20;;;;;;5086138;28;20032;-72
2024/02/09 10:01:34;;;;;;;0.20;0.20;;;15.10;45.20;;;;;;5086634;28;20033;-73
2024/02/09 10:04:00;;;;;;;0.25;0.25;;;15.20;45.10;;;;;;5079717;28;20055;-73
2024/02/09 10:06:28;;;;;;;;;;;15.20;45.70;;;;;;5073140;28;20294;-72
2024/02/09 10:08:54;;;;;;;0.17;0.10;;;15.20;45.20;;;;;;5089272;28;19913;-72
2024/02/09 10:11:20;;;;;;;0.75;0.52;;;15.10;46.30;;;;;;5071216;28;20121;-72
2024/02/09 10:13:51;;;;;;;;;;;15.10;46.50;;;;;;5072859;28;20032;-72
2024/02/09 10:16:18;;;;;;;0.55;0.55;;;15.10;46.30;;;;;;5088888;28;19935;-72
2024/02/09 10:18:45;;;;;;;4.85;1.80;;;15.10;46.40;;;;;;5055685;28;20094;-72
2024/02/09 10:21:11;;;;;;;0.30;0.20;;;15.10;46.30;;;;;;5072633;28;20060;-72
2024/02/09 10:23:37;;;;;;;;;;;15.10;46.90;;;;;;5072439;28;20259;-72
2024/02/09 10:26:24;;;;;;;0.80;0.47;;;15.10;47.00;;;;;;5072111;28;20322;-73
2024/02/09 10:28:52;;;;;;;0.25;0.25;;;15.10;46.20;;;;;;5086668;28;20048;-72
2024/02/09 10:31:22;;;;;;;0.20;0.20;;;15.10;45.50;;;;;;5091714;28;20037;-72
2024/02/09 10:33:53;;;;;;;1.02;0.35;;;15.10;46.60;;;;;;5092274;28;20087;-73
2024/02/09 10:36:23;;;;;;;1.48;1.10;;;15.20;46.20;;;;;;5092466;28;20494;-72
2024/02/09 10:38:50;;;;;;;0.73;0.47;;;15.20;45.80;;;;;;5091846;28;20373;-72
2024/02/09 10:41:18;;;;;;;1.35;0.70;;;15.30;44.80;;;;;;5071011;28;20036;-73
2024/02/09 10:46:31;;;;;;;0.88;0.30;;;15.30;45.00;;;;;;5072017;28;20036;-72
2024/02/09 10:48:59;;;;;;;0.82;0.65;;;15.30;44.80;;;;;;5074207;28;20221;-72
2024/02/09 10:51:29;;;;;;;8.80;0.70;;;15.30;44.30;;;;;;5091378;28;20278;-73
2024/02/09 10:54:54;;;;;;;1.83;1.10;;;15.30;44.70;;;;;;5091931;28;20534;-73
2024/02/09 10:57:21;;;;;;;0.40;0.38;;;15.30;44.40;;;;;;5092815;28;20031;-73
2024/02/09 10:59:48;;;;;;;9.52;3.40;;;15.30;43.50;;;;;;5091822;28;20442;-73
2024/02/09 11:02:15;;;;;;;0.75;0.40;;;15.30;42.90;;;;;;5082155;28;20067;-72
2024/02/09 11:04:42;;;;;;;0.10;0.10;;;15.40;43.30;;;;;;5071724;28;20028;-72
2024/02/09 11:07:09;;;;;;;2.88;1.92;;;15.30;43.00;;;;;;5071245;28;20036;-72
2024/02/09 11:09:37;;;;;;;0.60;0.60;;;15.40;42.90;;;;;;5071302;28;20127;-72
2024/02/09 11:12:04;;;;;;;0.30;0.28;;;15.40;43.30;;;;;;5053887;28;20044;-72
2024/02/09 11:14:33;;;;;;;1.45;0.95;;;15.50;41.80;;;;;;5071447;28;20534;-72
2024/02/09 11:20:05;;;;;;;10.50;0.60;;;15.60;40.90;;;;;;5074415;28;20089;-72
2024/02/09 11:22:37;;;;;;;0.65;0.50;;;15.70;41.70;;;;;;5072527;28;20048;-73
2024/02/09 11:25:07;;;;;;;4.18;0.70;;;15.80;41.60;;;;;;5054362;28;20021;-73
2024/02/09 11:27:35;;;;;;;0.10;0.10;;;15.80;41.10;;;;;;5070679;28;20205;-72
2024/02/09 11:30:03;;;;;;;0.95;0.73;;;15.90;41.40;;;;;;5072418;28;20020;-72
2024/02/09 11:32:31;;;;;;;0.20;0.20;;;16.00;40.90;;;;;;5070518;28;20059;-73
2024/02/09 11:34:59;;;;;;;4.47;1.17;;;16.20;41.80;;;;;;5070876;28;20111;-72
2024/02/09 11:37:25;;;;;;;7.95;0.52;;;16.10;40.40;;;;;;5070525;28;20067;-71
2024/02/09 11:39:51;;;;;;;0.38;0.30;;;16.20;40.80;;;;;;5070839;28;20028;-71
2024/02/09 11:42:17;;;;;;;0.17;0.17;;;16.30;40.40;;;;;;5071657;28;20055;-73
2024/02/09 11:44:44;;;;;;;0.22;0.20;;;16.20;40.40;;;;;;5072152;28;20046;-72
2024/02/09 11:47:12;;;;;;;0.32;0.25;;;16.30;39.90;;;;;;5070553;28;20067;-73
2024/02/09 11:49:43;;;;;;;0.75;0.50;;;16.30;39.70;;;;;;5079935;28;20028;-73
2024/02/09 11:52:10;;;;;;;0.77;0.43;;;16.20;40.30;;;;;;5089950;28;20438;-72
2024/02/09 11:54:36;;;;;;;;;;;16.40;38.90;;;;;;5091386;28;20078;-72
2024/02/09 11:57:02;;;;;;;0.20;0.20;;;16.40;38.80;;;;;;5090475;28;20019;-73
2024/02/09 11:59:28;;;;;;;;;;;16.60;39.70;;;;;;5091108;28;20081;-73
2024/02/09 12:01:55;;;;;;;1.73;0.97;;;16.60;39.50;;;;;;5091310;28;19943;-73
2024/02/09 12:04:22;;;;;;;;;;;16.50;38.70;;;;;;5074280;28;20020;-72
2024/02/09 12:06:49;;;;;;;0.52;0.30;;;16.70;40.00;;;;;;5087385;28;19924;-73
2024/02/09 12:09:15;;;;;;;0.20;0.20;;;16.60;39.40;;;;;;5071437;28;20097;-72
2024/02/09 12:11:47;;;;;;;0.80;0.38;;;16.50;39.40;;;;;;5069408;28;20040;-72
2024/02/09 12:14:14;;;;;;;0.43;0.32;;;16.40;39.20;;;;;;5061675;28;20024;-73
2024/02/09 12:16:40;;;;;;;0.17;0.17;;;16.40;39.30;;;;;;5080643;28;20120;-73
2024/02/09 12:19:06;;;;;;;;;;;16.40;39.30;;;;;;5070668;28;20032;-73
2024/02/09 12:21:32;;;;;;;0.68;0.68;;;16.40;39.50;;;;;;5069385;28;19920;-72
2024/02/09 12:23:58;;;;;;;;;;;16.30;39.90;;;;;;5070746;28;20040;-72
2024/02/09 12:26:24;;;;;;;0.80;0.57;;;16.20;39.90;;;;;;5072511;28;20320;-72
2024/02/09 12:28:51;;;;;;;;;;;16.20;39.10;;;;;;5091878;28;20028;-73
2024/02/09 12:31:19;;;;;;;0.40;0.30;;;16.10;39.40;;;;;;5106608;28;20403;-72
2024/02/09 12:33:49;;;;;;;0.63;0.30;;;16.00;40.60;;;;;;5090010;28;20427;-72
2024/02/09 12:36:20;;;;;;;5.38;0.43;;;16.00;40.00;;;;;;5090082;28;20020;-72
2024/02/09 12:38:54;;;;;;;1.17;0.75;;;16.00;39.80;;;;;;5073289;28;20046;-73
2024/02/09 12:41:20;;;;;;;0.47;0.20;;;16.00;40.00;;;;;;5073004;28;20036;-72
2024/02/09 12:43:56;;;;;;;1.13;0.55;;;15.90;41.40;;;;;;5090991;28;20442;-73
2024/02/09 12:49:13;;;;;;;;;;;15.80;40.90;;;;;;5086101;28;20105;-72
2024/02/09 12:51:42;;;;;;;0.38;0.32;;;15.80;41.20;;;;;;5069207;28;19916;-72
2024/02/09 12:54:09;;;;;;;0.10;0.10;;;15.80;41.70;;;;;;5069811;28;20425;-72
2024/02/09 12:56:35;;;;;;;0.10;0.10;;;15.80;42.40;;;;;;5052914;28;20560;-73
2024/02/09 12:59:01;;;;;;;0.10;0.10;;;15.80;42.20;;;;;;5069620;28;20028;-72
2024/02/09 13:01:28;;;;;;;0.55;0.40;;;15.80;42.10;;;;;;5070552;28;20040;-72
2024/02/09 13:03:54;;;;;;;0.17;0.17;;;15.70;41.50;;;;;;5071076;28;20064;-73
2024/02/09 13:06:20;;;;;;;0.40;0.30;;;15.70;41.40;;;;;;5069440;28;20029;-72
2024/02/09 13:08:46;;;;;;;2.72;0.57;;;15.70;42.10;;;;;;5070738;28;20036;-72
2024/02/09 13:11:12;;;;;;;0.68;0.22;;;15.70;42.10;;;;;;5068938;28;20033;-72
2024/02/09 13:13:39;;;;;;;1.30;0.75;;;15.80;42.20;;;;;;5069563;28;20090;-73
2024/02/09 13:18:51;;;;;;;0.57;0.30;;;15.80;41.30;;;;;;5070444;28;20063;-72
2024/02/09 13:21:20;;;;;;;3.03;0.85;;;15.80;41.40;;;;;;5068833;28;20040;-73
2024/02/09 13:23:47;;;;;;;0.52;0.40;;;15.80;41.50;;;;;;5052824;28;20115;-73
2024/02/09 13:26:15;;;;;;;0.20;0.20;;;15.80;40.40;;;;;;5069345;28;20029;-72
2024/02/09 13:29:02;;;;;;;0.40;0.30;;;15.70;41.60;;;;;;5070505;28;20040;-72
2024/02/09 13:31:29;;;;;;;0.30;0.20;;;15.80;41.60;;;;;;5070149;28;20123;-73
2024/02/09 13:33:58;;;;;;;0.75;0.75;;;15.80;41.00;;;;;;5068803;28;20033;-73
2024/02/09 13:36:25;;;;;;;1.55;0.82;;;15.80;42.10;;;;;;5069066;28;20119;-72
2024/02/09 13:38:51;;;;;;;1.27;0.90;;;15.80;41.90;;;;;;5070275;28;20029;-73
2024/02/09 13:41:19;;;;;;;0.93;0.47;;;15.80;42.40;;;;;;5074059;28;20120;-72
2024/02/09 13:43:45;;;;;;;1.27;0.93;;;15.80;42.00;;;;;;5056221;28;20032;-73
2024/02/09 13:46:11;;;;;;;0.40;0.32;;;15.80;42.00;;;;;;5074016;28;20043;-72
2024/02/09 13:48:37;;;;;;;2.00;1.33;;;15.80;41.90;;;;;;5073924;28;20066;-72
2024/02/09 13:51:05;;;;;;;3.20;2.13;;;15.90;42.40;;;;;;5073660;28;20043;-72
2024/02/09 13:53:31;;;;;;;0.77;0.45;;;15.90;41.80;;;;;;5074322;28;20036;-73
2024/02/09 13:55:57;;;;;;;;;;;15.90;41.20;;;;;;5073406;28;20119;-73
2024/02/09 13:58:26;;;;;;;1.05;0.77;;;15.90;41.60;;;;;;5072253;28;19939;-73
2024/02/09 14:00:53;;;;;;;1.65;0.90;;;15.90;41.60;;;;;;5073318;28;20037;-73
2024/02/09 14:03:20;;;;;;;2.33;0.40;;;15.90;41.10;;;;;;5073939;28;20056;-73
2024/02/09 14:05:46;;;;;;;2.33;1.02;;;16.00;41.10;;;;;;5073854;28;20028;-73
2024/02/09 14:08:12;;;;;;;;;;;16.40;40.60;;;;;;5072779;28;20048;-73
2024/02/09 14:10:40;;;;;;;1.58;1.10;;;17.40;38.20;;;;;;5071829;28;19928;-73
2024/02/09 14:13:06;;;;;;;0.70;0.30;;;19.10;36.40;;;;;;5073722;28;20044;-72
2024/02/09 14:15:33;;;;;;;0.82;0.57;;;20.70;31.80;;;;;;5073567;28;20057;-73
2024/02/09 14:18:00;;;;;;;0.45;0.40;;;21.40;30.40;;;;;;5073640;28;20039;-72
2024/02/09 14:20:26;;;;;;;;;;;21.20;29.60;;;;;;5072165;28;20064;-73
2024/02/09 14:22:53;;;;;;;0.93;0.53;;;20.50;31.10;;;;;;5073638;28;19923;-72
2024/02/09 14:25:19;;;;;;;0.25;0.25;;;20.20;31.30;;;;;;5055449;28;20036;-73
2024/02/09 14:27:46;;;;;;;0.30;0.30;;;19.80;31.60;;;;;;5055195;28;20086;-74
2024/02/09 14:30:12;;;;;;;0.77;0.30;;;19.30;33.30;;;;;;5055107;28;20086;-73
2024/02/09 14:32:39;;;;;;;0.35;0.22;;;18.70;33.00;;;;;;5072101;28;20128;-73
2024/02/09 14:35:05;;;;;;;0.80;0.47;;;18.30;34.80;;;;;;5073336;28;20040;-72
2024/02/09 14:37:31;;;;;;;1.13;0.95;;;18.10;35.20;;;;;;5073325;28;20400;-72
2024/02/09 14:39:58;;;;;;;0.52;0.40;;;18.00;35.60;;;;;;5072073;28;20032;-73
2024/02/09 14:42:26;;;;;;;2.63;1.60;;;17.60;36.50;;;;;;5070997;28;20032;-73
2024/02/09 14:44:52;;;;;;;1.23;0.65;;;17.30;36.90;;;;;;5073174;28;20025;-73
2024/02/09 14:47:20;;;;;;;4.90;1.05;;;17.00;37.90;;;;;;5072965;28;20046;-73
2024/02/09 14:49:48;;;;;;;1.15;0.65;;;16.80;37.90;;;;;;5061179;28;20060;-73
2024/02/09 14:52:14;;;;;;;2.25;1.65;;;16.60;38.20;;;;;;5075310;28;20054;-73
2024/02/09 14:54:42;;;;;;;4.00;0.80;;;16.40;38.90;;;;;;5080166;28;20031;-72
2024/02/09 14:57:10;;;;;;;0.30;0.30;;;16.20;39.50;;;;;;5071239;28;20049;-72
2024/02/09 14:59:36;;;;;;;2.78;0.93;;;16.00;40.10;;;;;;5085537;28;20071;-72
2024/02/09 15:02:03;;;;;;;0.30;0.22;;;16.00;40.50;;;;;;5054018;28;20504;-72
2024/02/09 15:04:29;;;;;;;;;;;15.80;39.90;;;;;;5054812;28;20017;-72
2024/02/09 15:06:56;;;;;;;0.50;0.40;;;15.80;41.00;;;;;;5071157;28;19920;-72
2024/02/09 15:09:24;;;;;;;0.60;0.40;;;15.70;41.40;;;;;;5062388;28;20127;-73
2024/02/09 15:11:51;;;;;;;0.63;0.32;;;15.50;41.40;;;;;;5090682;28;20504;-72
2024/02/09 15:14:18;;;;;;;0.15;0.15;;;15.40;41.30;;;;;;5074876;28;20032;-72
2024/02/09 15:16:44;;;;;;;;;;;15.30;41.60;;;;;;5091471;28;20046;-72
2024/02/09 15:19:11;;;;;;;1.35;0.75;;;15.30;42.50;;;;;;5074326;28;19916;-73
2024/02/09 15:21:40;;;;;;;0.93;0.68;;;15.20;41.50;;;;;;5090338;28;20418;-73
2024/02/09 15:24:06;;;;;;;0.73;0.73;;;15.10;42.20;;;;;;5086886;28;20486;-72
2024/02/09 15:29:17;;;;;;;2.83;1.38;;;15.00;42.10;;;;;;5071050;28;20055;-72
2024/02/09 15:31:48;;;;;;;2.28;1.48;;;14.90;42.80;;;;;;5084375;28;20037;-72
2024/02/09 15:34:16;;;;;;;10.35;0.88;;;14.90;42.50;;;;;;5089728;28;20035;-72
2024/02/09 15:36:44;;;;;;;2.42;1.23;;;14.90;42.80;;;;;;5074006;28;20522;-73
2024/02/09 15:39:10;;;;;;;0.82;0.30;;;14.80;42.60;;;;;;5071031;28;20427;-72
2024/02/09 15:41:38;;;;;;;0.57;0.43;;;14.80;42.50;;;;;;5069937;28;20075;-73
2024/02/09 15:44:04;;;;;;;0.85;0.50;;;14.80;43.20;;;;;;5085139;28;20514;-72
2024/02/09 15:46:30;;;;;;;0.82;0.82;;;14.70;43.50;;;;;;5090941;28;20028;-72
2024/02/09 15:48:56;;;;;;;2.15;1.02;;;14.70;43.60;;;;;;5090589;28;20477;-72
2024/02/09 15:51:24;;;;;;;0.45;0.30;;;14.60;43.70;;;;;;5074180;28;20057;-72
2024/02/09 15:53:52;;;;;;;1.75;1.50;;;14.60;43.90;;;;;;5079897;28;20125;-72
2024/02/09 15:56:24;;;;;;;1.52;0.90;;;14.50;44.10;;;;;;5070261;28;20033;-73
2024/02/09 15:58:52;;;;;;;0.20;0.20;;;14.50;44.60;;;;;;5070304;28;20036;-73
2024/02/09 16:01:19;;;;;;;0.35;0.35;;;14.50;44.70;;;;;;5069430;28;20060;-72
2024/02/09 16:03:49;;;;;;;0.65;0.63;;;14.50;44.70;;;;;;5070648;28;20048;-72
2024/02/09 16:06:15;;;;;;;0.60;0.50;;;14.40;45.30;;;;;;5070456;28;20071;-73
2024/02/09 16:08:42;;;;;;;;;;;14.40;45.70;;;;;;5083003;28;20480;-72
2024/02/09 16:11:10;;;;;;;0.45;0.40;;;14.30;45.50;;;;;;5069619;28;19927;-73
2024/02/09 16:13:55;;;;;;;0.95;0.32;;;14.30;45.50;;;;;;5070153;28;20051;-72
2024/02/09 16:16:26;;;;;;;1.98;1.60;;;14.20;45.90;;;;;;5071421;28;20518;-72
2024/02/09 16:18:52;;;;;;;0.32;0.25;;;14.20;46.10;;;;;;5070032;28;20077;-73
2024/02/09 16:21:19;;;;;;;1.33;0.30;;;14.20;46.40;;;;;;5069468;28;20037;-72
2024/02/09 16:26:31;;;;;;;2.13;0.70;;;14.10;46.80;;;;;;5090321;28;20115;-72
2024/02/09 16:28:57;;;;;;;1.95;0.85;;;14.00;47.30;;;;;;5090041;28;20032;-73
2024/02/09 16:31:24;;;;;;;0.30;0.30;;;14.00;47.60;;;;;;5089652;28;20032;-73
2024/02/09 16:33:50;;;;;;;1.92;0.90;;;14.00;48.00;;;;;;5091373;28;20918;-73
2024/02/09 16:39:05;;;;;;;1.10;0.45;;;14.00;47.60;;;;;;5091435;28;20040;-73
2024/02/09 16:41:31;;;;;;;0.77;0.35;;;13.90;48.90;;;;;;5089406;28;20377;-72
2024/02/09 16:43:59;;;;;;;0.77;0.70;;;13.90;48.40;;;;;;5091241;28;20039;-72
2024/02/09 16:46:28;;;;;;;0.52;0.43;;;13.90;47.70;;;;;;5089694;28;20066;-73